Basin, Wyoming
Current Conditions -  °F | °C
As of 8:53 PM on Wednesday 28 Jan 2015 (Local Time) from KGEY Reporting Station
Moderate Fog Moderate Fog  
Wind Chill: 26°   Ceiling: 200
Heat Index: 32°   Visibility: 0.25mi
Dew Point: 32°   Wind: 7mph
Humidity: 100%   Direction: 290°WNW
Pressure: 30.34"   Gusts: NA
Location:  44.38°N, 108.04°W
Report Text: KGEY 290353Z AUTO 29006KT 1/4SM FG VV002 00/00 A3034 RMK AO2 SLP304 T00000000
Loading
Personal Weather Stations






























Interactive Weather Map New forecast layout! Learn more

10-Day Weather Forecast

Advertisements
Track Severe Weather on mobile